createdAt,value
2022-09-10T00:00:43.592Z,100008.72
2022-09-10T00:03:11.414Z,100019.41
2022-09-10T00:05:43.805Z,100014.19
2022-09-10T00:08:11.105Z,100012.91
2022-09-10T00:10:42.833Z,100018.59
2022-09-10T00:13:10.517Z,100018.94
2022-09-10T00:15:46.970Z,100016.69
2022-09-10T00:18:15.673Z,100014.31
2022-09-10T00:20:43.597Z,100018.94
2022-09-10T00:23:10.406Z,100026.31
2022-09-10T00:25:37.141Z,100024.38
2022-09-10T00:28:03.688Z,100033.91
2022-09-10T00:30:30.350Z,100028.69
2022-09-10T00:32:56.929Z,100030.53
2022-09-10T00:35:23.965Z,100034.03
2022-09-10T00:37:50.477Z,100043.78
2022-09-10T00:40:17.197Z,100027.34
2022-09-10T00:42:43.742Z,100030.56
2022-09-10T00:45:18.798Z,100030.97
2022-09-10T00:47:47.848Z,100032.06
2022-09-10T00:50:37.825Z,100038.44
2022-09-10T00:53:11.256Z,100031.34
2022-09-10T00:55:42.573Z,100034.31
2022-09-10T00:58:12.031Z,100036.81
2022-09-10T01:00:41.151Z,100036.28
2022-09-10T01:03:11.449Z,100037.91
2022-09-10T01:05:42.489Z,100043.22
2022-09-10T01:08:14.034Z,100044.56
2022-09-10T01:11:06.794Z,100043.78
2022-09-10T01:13:55.210Z,100037.88
2022-09-10T01:16:34.794Z,100040.59
2022-09-10T01:19:24.514Z,100035.59
2022-09-10T01:21:51.976Z,100037.75
2022-09-10T01:24:47.147Z,100045.25
2022-09-10T01:27:45.955Z,100039.28
2022-09-10T01:30:20.420Z,100037.97
2022-09-10T01:32:59.425Z,100047.22
2022-09-10T01:35:44.816Z,100048.13
2022-09-10T01:38:23.547Z,100057.03
2022-09-10T01:40:50.530Z,100053.00
2022-09-10T01:43:17.039Z,100053.28
2022-09-10T01:46:03.266Z,100050.38
2022-09-10T01:48:54.811Z,100051.47
2022-09-10T01:51:31.911Z,100057.84
2022-09-10T01:54:14.386Z,100057.28
2022-09-10T01:56:55.451Z,100067.59
2022-09-10T01:59:47.799Z,100062.63
2022-09-10T02:02:20.812Z,100065.97
2022-09-10T02:04:50.536Z,100061.13
2022-09-10T02:07:21.342Z,100064.44
2022-09-10T02:09:50.803Z,100060.72
2022-09-10T02:12:19.771Z,100063.50
2022-09-10T02:14:51.855Z,100053.69
2022-09-10T02:17:19.340Z,100053.28
2022-09-10T02:19:47.643Z,100054.38
2022-09-10T02:22:15.540Z,100061.53
2022-09-10T02:24:44.353Z,100054.22
2022-09-10T02:27:12.060Z,100058.63
2022-09-10T02:29:39.936Z,100051.28
2022-09-10T02:32:08.414Z,100048.63
2022-09-10T02:34:36.272Z,100049.19
2022-09-10T02:37:03.764Z,100056.03
2022-09-10T02:39:31.020Z,100050.88
2022-09-10T02:41:58.808Z,100060.69
2022-09-10T02:44:26.918Z,100055.25
2022-09-10T02:46:53.412Z,100061.75
2022-09-10T02:49:21.157Z,100062.13
2022-09-10T02:51:50.562Z,100063.50
2022-09-10T02:54:19.990Z,100068.38
2022-09-10T02:56:49.974Z,100061.75
2022-09-10T02:59:18.053Z,100066.88
2022-09-10T03:01:44.799Z,100067.34
2022-09-10T03:04:11.392Z,100063.47
2022-09-10T03:06:38.239Z,100058.75
2022-09-10T03:09:04.846Z,100066.59
2022-09-10T03:11:31.743Z,100059.47
2022-09-10T03:13:58.594Z,100070.63
2022-09-10T03:16:25.221Z,100064.06
2022-09-10T03:18:52.418Z,100068.69
2022-09-10T03:21:21.646Z,100065.75
2022-09-10T03:23:50.785Z,100070.94
2022-09-10T03:26:19.033Z,100077.84
2022-09-10T03:28:46.685Z,100074.06
2022-09-10T03:31:14.058Z,100073.03
2022-09-10T03:33:41.373Z,100068.72
2022-09-10T03:36:09.708Z,100082.13
2022-09-10T03:38:36.321Z,100080.25
2022-09-10T03:41:03.196Z,100078.13
2022-09-10T03:43:30.226Z,100070.78
2022-09-10T03:45:57.007Z,100073.00
2022-09-10T03:48:23.998Z,100072.47
2022-09-10T03:50:53.281Z,100078.22
2022-09-10T03:53:20.186Z,100066.50
2022-09-10T03:55:48.022Z,100066.72
2022-09-10T03:58:16.139Z,100069.69
2022-09-10T04:00:43.072Z,100066.38
2022-09-10T04:03:11.151Z,100065.25
2022-09-10T04:05:44.074Z,100068.97
2022-09-10T04:08:12.265Z,100066.81
2022-09-10T04:10:44.117Z,100062.91
2022-09-10T04:13:11.469Z,100065.19
2022-09-10T04:15:38.201Z,100058.41
2022-09-10T04:18:06.226Z,100071.78
2022-09-10T04:20:33.985Z,100065.59
2022-09-10T04:23:00.614Z,100068.38
2022-09-10T04:25:27.799Z,100064.09
2022-09-10T04:27:54.626Z,100059.19
2022-09-10T04:30:21.103Z,100060.56
2022-09-10T04:32:47.613Z,100055.28
2022-09-10T04:35:17.197Z,100065.50
2022-09-10T04:37:43.806Z,100068.31
2022-09-10T04:40:10.765Z,100066.22
2022-09-10T04:45:13.606Z,100070.09
2022-09-10T04:47:40.205Z,100076.63
2022-09-10T04:50:07.344Z,100074.53
2022-09-10T04:52:33.899Z,100075.97
2022-09-10T04:55:00.331Z,100087.69
2022-09-10T04:57:26.676Z,100080.06
2022-09-10T04:59:54.043Z,100071.94
2022-09-10T05:02:20.724Z,100079.06
2022-09-10T05:04:47.235Z,100073.63
2022-09-10T05:07:13.591Z,100075.81
2022-09-10T05:09:40.132Z,100076.38
2022-09-10T05:12:06.551Z,100083.44
2022-09-10T05:14:33.966Z,100081.56
2022-09-10T05:17:01.312Z,100083.50
2022-09-10T05:19:27.720Z,100082.44
2022-09-10T05:21:54.203Z,100081.38
2022-09-10T05:24:21.178Z,100080.59
2022-09-10T05:26:47.616Z,100083.28
2022-09-10T05:29:14.168Z,100083.88
2022-09-10T05:31:41.048Z,100087.13
2022-09-10T05:34:08.449Z,100089.06
2022-09-10T05:36:35.590Z,100083.38
2022-09-10T05:39:03.786Z,100087.75
2022-09-10T05:41:31.209Z,100074.94
2022-09-10T05:43:58.649Z,100085.28
2022-09-10T05:46:25.437Z,100078.75
2022-09-10T05:48:54.256Z,100082.56
2022-09-10T05:51:21.838Z,100083.13
2022-09-10T05:53:48.369Z,100083.13
2022-09-10T05:56:14.756Z,100085.03
2022-09-10T05:58:41.360Z,100071.34
2022-09-10T06:01:07.884Z,100079.81
2022-09-10T06:03:34.525Z,100070.81
2022-09-10T06:06:00.986Z,100079.16
2022-09-10T06:08:27.373Z,100080.28
2022-09-10T06:11:05.858Z,100078.53
2022-09-10T06:13:33.936Z,100076.16
2022-09-10T06:16:00.998Z,100086.25
2022-09-10T06:18:28.077Z,100084.03
2022-09-10T06:21:06.162Z,100088.63
2022-09-10T06:23:33.082Z,100083.50
2022-09-10T06:26:04.396Z,100084.81
2022-09-10T06:28:33.097Z,100087.00
2022-09-10T06:31:00.251Z,100089.72
2022-09-10T06:33:26.941Z,100091.63
2022-09-10T06:35:57.762Z,100086.16
2022-09-10T06:38:25.212Z,100085.63
2022-09-10T06:40:56.050Z,100089.97
2022-09-10T06:43:23.641Z,100089.41
2022-09-10T06:45:52.297Z,100101.63
2022-09-10T06:48:47.641Z,100101.31
2022-09-10T06:51:14.181Z,100105.13
2022-09-10T06:53:42.902Z,100097.78
2022-09-10T06:56:13.070Z,100096.34
2022-09-10T06:58:39.935Z,100104.00
2022-09-10T07:01:25.815Z,100106.06
2022-09-10T07:03:57.044Z,100106.09
2022-09-10T07:06:24.730Z,100111.53
2022-09-10T07:08:58.232Z,100101.69
2022-09-10T07:11:26.838Z,100111.50
2022-09-10T07:13:53.781Z,100117.47
2022-09-10T07:16:21.975Z,100120.16
2022-09-10T07:18:50.383Z,100123.38
2022-09-10T07:21:18.421Z,100126.31
2022-09-10T07:23:46.498Z,100118.69
2022-09-10T07:26:15.735Z,100118.34
2022-09-10T07:28:42.892Z,100127.59
2022-09-10T07:31:23.559Z,100122.31
2022-09-10T07:33:50.587Z,100128.59
2022-09-10T07:36:18.079Z,100135.13
2022-09-10T07:38:44.927Z,100135.69
2022-09-10T07:41:13.235Z,100128.00
2022-09-10T07:43:41.683Z,100145.19
2022-09-10T07:46:12.485Z,100140.53
2022-09-10T07:48:41.447Z,100141.06
2022-09-10T07:51:09.140Z,100149.50
2022-09-10T07:53:35.987Z,100146.47
2022-09-10T07:56:05.520Z,100147.50
2022-09-10T07:58:33.622Z,100140.97
2022-09-10T08:01:00.331Z,100144.75
2022-09-10T08:03:27.821Z,100150.16
2022-09-10T08:05:55.082Z,100151.16
2022-09-10T08:08:22.427Z,100154.91
2022-09-10T08:10:49.760Z,100160.25
2022-09-10T08:13:16.519Z,100164.50
2022-09-10T08:15:46.107Z,100159.44
2022-09-10T08:18:13.680Z,100167.06
2022-09-10T08:20:40.783Z,100166.75
2022-09-10T08:23:07.946Z,100166.16
2022-09-10T08:25:34.925Z,100171.34
2022-09-10T08:28:01.403Z,100169.44
2022-09-10T08:30:28.169Z,100184.06
2022-09-10T08:32:56.146Z,100176.72
2022-09-10T08:35:22.653Z,100181.16
2022-09-10T08:37:49.201Z,100178.50
2022-09-10T08:40:16.434Z,100185.63
2022-09-10T08:42:49.333Z,100190.53
2022-09-10T08:45:31.505Z,100183.88
2022-09-10T08:48:05.973Z,100188.34
2022-09-10T08:50:46.625Z,100190.53
2022-09-10T08:53:28.159Z,100188.34
2022-09-10T08:55:58.708Z,100188.16
2022-09-10T08:58:35.934Z,100190.81
2022-09-10T09:01:05.083Z,100181.28
2022-09-10T09:03:37.997Z,100179.00
2022-09-10T09:06:09.060Z,100194.28
2022-09-10T09:08:48.634Z,100187.88
2022-09-10T09:11:21.026Z,100188.13
2022-09-10T09:14:16.987Z,100188.81
2022-09-10T09:16:51.015Z,100188.13
2022-09-10T09:19:23.313Z,100187.53
2022-09-10T09:21:53.181Z,100188.56
2022-09-10T09:24:48.912Z,100180.81
2022-09-10T09:27:20.197Z,100189.03
2022-09-10T09:29:56.435Z,100185.38
2022-09-10T09:32:24.017Z,100177.44
2022-09-10T09:34:56.785Z,100185.47
2022-09-10T09:37:27.187Z,100185.13
2022-09-10T09:40:05.782Z,100184.66
2022-09-10T09:42:45.592Z,100172.56
2022-09-10T09:45:28.331Z,100176.63
2022-09-10T09:47:55.887Z,100178.56
2022-09-10T09:50:23.061Z,100175.22
2022-09-10T09:52:55.216Z,100184.38
2022-09-10T09:55:34.982Z,100180.34
2022-09-10T09:58:33.741Z,100173.34
2022-09-10T10:01:09.734Z,100177.41
2022-09-10T10:03:53.465Z,100174.50
2022-09-10T10:06:34.717Z,100177.06
2022-09-10T10:09:06.832Z,100173.81
2022-09-10T10:11:45.197Z,100169.78
2022-09-10T10:14:20.151Z,100166.47
2022-09-10T10:16:52.266Z,100173.25
2022-09-10T10:19:36.648Z,100163.16
2022-09-10T10:22:17.073Z,100173.50
2022-09-10T10:24:45.210Z,100162.94
2022-09-10T10:27:26.673Z,100162.22
2022-09-10T10:30:22.190Z,100167.69
2022-09-10T10:32:57.008Z,100171.53
2022-09-10T10:35:42.899Z,100156.63
2022-09-10T10:38:33.320Z,100162.16
2022-09-10T10:41:24.650Z,100157.69
2022-09-10T10:44:13.355Z,100164.56
2022-09-10T10:46:45.914Z,100170.22
2022-09-10T10:49:32.270Z,100163.72
2022-09-10T10:52:10.571Z,100163.91
2022-09-10T10:54:43.598Z,100162.91
2022-09-10T10:57:53.463Z,100162.00
2022-09-10T11:00:20.773Z,100165.00
2022-09-10T11:03:16.059Z,100157.41
2022-09-10T11:05:53.827Z,100162.19
2022-09-10T11:08:35.044Z,100163.81
2022-09-10T11:11:18.775Z,100162.09
2022-09-10T11:13:57.807Z,100165.72
2022-09-10T11:16:40.290Z,100164.22
2022-09-10T11:19:35.787Z,100167.66
2022-09-10T11:22:14.460Z,100159.03
2022-09-10T11:24:50.247Z,100153.66
2022-09-10T11:27:27.724Z,100161.63
2022-09-10T11:30:10.097Z,100160.22
2022-09-10T11:33:05.788Z,100152.31
2022-09-10T11:35:48.251Z,100154.34
2022-09-10T11:38:29.186Z,100147.31
2022-09-10T11:41:04.380Z,100156.13
2022-09-10T11:43:44.027Z,100144.38
2022-09-10T11:46:15.283Z,100143.78
2022-09-10T11:48:50.900Z,100141.78
2022-09-10T11:51:24.325Z,100137.44
2022-09-10T11:53:57.303Z,100136.53
2022-09-10T11:57:01.060Z,100135.34
2022-09-10T11:59:49.441Z,100138.41
2022-09-10T12:02:40.988Z,100140.41
2022-09-10T12:05:31.360Z,100135.28
2022-09-10T12:07:57.714Z,100127.25
2022-09-10T12:10:53.295Z,100134.78
2022-09-10T12:13:19.934Z,100138.84
2022-09-10T12:16:02.583Z,100123.34
2022-09-10T12:18:42.751Z,100136.81
2022-09-10T12:21:20.227Z,100135.09
2022-09-10T12:23:49.120Z,100128.59
2022-09-10T12:26:21.071Z,100129.13
2022-09-10T12:28:53.650Z,100126.47
2022-09-10T12:31:21.621Z,100129.81
2022-09-10T12:33:48.153Z,100126.16
2022-09-10T12:36:35.760Z,100127.16
2022-09-10T12:39:22.670Z,100128.69
2022-09-10T12:41:49.823Z,100125.84
2022-09-10T12:44:36.729Z,100120.34
2022-09-10T12:47:15.845Z,100117.31
2022-09-10T12:49:57.484Z,100119.13
2022-09-10T12:52:52.728Z,100114.84
2022-09-10T12:55:36.196Z,100106.50
2022-09-10T12:58:30.354Z,100108.03
2022-09-10T13:00:58.128Z,100106.50
2022-09-10T13:03:27.931Z,100108.09
2022-09-10T13:05:57.722Z,100099.63
2022-09-10T13:08:28.043Z,100103.69
2022-09-10T13:10:58.380Z,100108.84
2022-09-10T13:13:39.979Z,100102.44
2022-09-10T13:16:13.929Z,100105.81
2022-09-10T13:18:42.077Z,100111.41
2022-09-10T13:21:40.756Z,100111.22
2022-09-10T13:24:31.784Z,100114.41
2022-09-10T13:27:20.557Z,100123.25
2022-09-10T13:29:56.345Z,100121.72
2022-09-10T13:32:34.454Z,100128.84
2022-09-10T13:35:21.974Z,100126.31
2022-09-10T13:37:54.483Z,100122.34
2022-09-10T13:41:07.016Z,100123.44
2022-09-10T13:44:01.499Z,100121.41
2022-09-10T13:46:35.267Z,100117.03
2022-09-10T13:49:26.373Z,100122.47
2022-09-10T13:51:56.609Z,100117.16
2022-09-10T13:54:36.597Z,100124.50
2022-09-10T13:57:20.236Z,100122.72
2022-09-10T13:59:50.600Z,100120.69
2022-09-10T14:02:19.798Z,100120.44
2022-09-10T14:04:46.556Z,100121.16
2022-09-10T14:07:17.050Z,100122.50
2022-09-10T14:09:49.376Z,100128.34
2022-09-10T14:12:19.284Z,100126.28
2022-09-10T14:14:49.995Z,100124.84
2022-09-10T14:17:23.224Z,100128.69
2022-09-10T14:19:58.028Z,100132.41
2022-09-10T14:22:26.469Z,100129.59
2022-09-10T14:24:53.756Z,100132.50
2022-09-10T14:27:26.101Z,100122.16
2022-09-10T14:29:56.432Z,100120.31
2022-09-10T14:32:22.838Z,100117.16
2022-09-10T14:34:49.257Z,100118.25
2022-09-10T14:37:44.989Z,100109.44
2022-09-10T14:40:20.846Z,100113.19
2022-09-10T14:42:52.509Z,100114.06
2022-09-10T14:45:46.535Z,100118.31
2022-09-10T14:48:42.352Z,100111.31
2022-09-10T14:51:11.024Z,100113.94
2022-09-10T14:53:37.939Z,100104.72
2022-09-10T14:56:10.017Z,100110.19
2022-09-10T14:58:36.442Z,100105.63
2022-09-10T15:01:04.158Z,100098.84
2022-09-10T15:03:30.557Z,100099.94
2022-09-10T15:05:56.982Z,100098.66
2022-09-10T15:08:23.418Z,100106.06
2022-09-10T15:10:50.259Z,100099.56
2022-09-10T15:13:18.945Z,100105.38
2022-09-10T15:15:50.094Z,100100.22
2022-09-10T15:18:17.338Z,100109.53
2022-09-10T15:20:43.765Z,100109.34
2022-09-10T15:23:11.595Z,100108.03
2022-09-10T15:25:44.762Z,100109.34
2022-09-10T15:28:11.166Z,100114.72
2022-09-10T15:30:37.681Z,100118.06
2022-09-10T15:33:05.863Z,100113.22
2022-09-10T15:35:32.370Z,100115.44
2022-09-10T15:38:01.441Z,100116.91
2022-09-10T15:40:28.107Z,100115.06
2022-09-10T15:42:54.736Z,100110.22
2022-09-10T19:45:49.431Z,100287.09
2022-09-10T19:48:16.023Z,100285.50
2022-09-10T19:50:45.256Z,100287.19
2022-09-10T19:53:12.318Z,100285.03
2022-09-10T19:55:41.944Z,100291.59
2022-09-10T19:58:13.152Z,100288.28
2022-09-10T20:00:46.922Z,100291.03
2022-09-10T20:03:14.555Z,100291.34
2022-09-10T20:05:44.579Z,100298.16
2022-09-10T20:08:11.100Z,100295.47
2022-09-10T20:10:39.133Z,100299.28
2022-09-10T20:13:06.137Z,100292.50
2022-09-10T20:15:32.853Z,100295.25
2022-09-10T20:18:00.967Z,100289.53
2022-09-10T20:20:30.320Z,100299.88
2022-09-10T20:23:01.382Z,100295.00
2022-09-10T20:25:31.693Z,100297.22
2022-09-10T20:27:58.641Z,100295.88
2022-09-10T20:30:26.024Z,100295.66
2022-09-10T20:32:52.624Z,100292.38
2022-09-10T20:35:19.125Z,100295.41
2022-09-10T20:37:51.651Z,100286.31
2022-09-10T20:40:18.340Z,100295.13
2022-09-10T20:42:44.804Z,100297.50
2022-09-10T20:45:11.417Z,100299.22
2022-09-10T20:47:43.131Z,100293.81
2022-09-10T20:50:13.744Z,100302.25
2022-09-10T20:52:41.928Z,100293.84
2022-09-10T20:55:10.105Z,100294.69
2022-09-10T20:57:36.551Z,100287.09
2022-09-10T21:00:03.108Z,100285.13
2022-09-10T21:02:29.719Z,100295.78
2022-09-10T21:04:56.602Z,100288.75
2022-09-10T21:07:25.828Z,100293.16
2022-09-10T21:09:52.532Z,100299.16
2022-09-10T21:12:19.099Z,100291.56
2022-09-10T21:14:48.548Z,100296.44
2022-09-10T21:17:17.780Z,100298.69
2022-09-10T21:19:44.308Z,100300.84
2022-09-10T21:22:10.989Z,100300.34
2022-09-10T21:24:39.682Z,100302.53
2022-09-10T21:27:06.436Z,100310.19
2022-09-10T21:29:36.332Z,100313.44
2022-09-10T21:32:06.140Z,100317.56
2022-09-10T21:34:37.556Z,100316.75
2022-09-10T21:37:04.201Z,100320.28
2022-09-10T21:39:30.662Z,100319.47
2022-09-10T21:42:00.313Z,100326.81
2022-09-10T21:44:26.933Z,100320.44
2022-09-10T21:46:53.418Z,100317.63
2022-09-10T21:49:23.033Z,100323.59
2022-09-10T21:51:52.834Z,100326.28
2022-09-10T21:54:28.297Z,100330.03
2022-09-10T21:56:56.008Z,100335.97
2022-09-10T21:59:27.772Z,100319.22
2022-09-10T22:01:54.570Z,100330.41
2022-09-10T22:04:23.128Z,100335.22
2022-09-10T22:06:50.672Z,100340.34
2022-09-10T22:09:19.695Z,100333.72
2022-09-10T22:11:50.302Z,100333.38
2022-09-10T22:14:19.196Z,100330.59
2022-09-10T22:16:45.950Z,100337.09
2022-09-10T22:19:18.901Z,100329.72
2022-09-10T22:21:46.318Z,100339.28
2022-09-10T22:24:20.426Z,100339.72
2022-09-10T22:26:47.493Z,100337.28
2022-09-10T22:29:20.418Z,100346.22
2022-09-10T22:31:47.866Z,100347.88
2022-09-10T22:34:16.020Z,100351.09
2022-09-10T22:36:44.913Z,100351.66
2022-09-10T22:39:13.037Z,100351.06
2022-09-10T22:41:40.443Z,100345.09
2022-09-10T22:44:07.543Z,100349.97
2022-09-10T22:46:35.661Z,100357.06
2022-09-10T22:49:02.839Z,100350.50
2022-09-10T22:51:34.514Z,100351.00
2022-09-10T22:54:01.476Z,100357.31
2022-09-10T22:56:28.576Z,100354.81
2022-09-10T22:58:57.947Z,100357.56
2022-09-10T23:01:27.758Z,100368.50
2022-09-10T23:03:59.233Z,100369.03
2022-09-10T23:06:28.352Z,100373.44
2022-09-10T23:08:58.132Z,100379.72
2022-09-10T23:11:27.899Z,100389.25
2022-09-10T23:13:57.532Z,100387.63
2022-09-10T23:16:36.573Z,100387.56
2022-09-10T23:19:05.932Z,100389.25
2022-09-10T23:21:34.406Z,100387.63
2022-09-10T23:24:03.831Z,100391.50
2022-09-10T23:26:30.532Z,100389.84
2022-09-10T23:28:57.529Z,100395.31
2022-09-10T23:31:26.249Z,100398.84
2022-09-10T23:33:58.567Z,100399.09
2022-09-10T23:36:26.867Z,100399.44
2022-09-10T23:38:53.877Z,100409.03
2022-09-10T23:41:20.594Z,100412.84
2022-09-10T23:43:47.573Z,100415.88
2022-09-10T23:46:14.486Z,100413.94
2022-09-10T23:48:45.985Z,100415.09
2022-09-10T23:51:14.400Z,100424.38
2022-09-10T23:53:41.230Z,100414.25
2022-09-10T23:56:08.652Z,100424.38
2022-09-10T23:58:35.503Z,100420.53
